sensor_id;sensor_type;location;lat;lon;timestamp;pressure;altitude;pressure_sealevel;temperature;humidity
51229;BME280;37304;52.216;6.874;2023-05-23T00:04:30;101342.00;;;14.73;100.00
51229;BME280;37304;52.216;6.874;2023-05-23T00:09:31;101338.03;;;14.56;100.00
51229;BME280;37304;52.216;6.874;2023-05-23T00:14:32;101334.47;;;14.60;100.00
51229;BME280;37304;52.216;6.874;2023-05-23T00:19:33;101325.50;;;14.69;100.00
51229;BME280;37304;52.216;6.874;2023-05-23T00:24:35;101328.34;;;14.60;100.00
51229;BME280;37304;52.216;6.874;2023-05-23T00:29:36;101334.66;;;14.51;100.00
51229;BME280;37304;52.216;6.874;2023-05-23T00:34:36;101330.31;;;14.51;100.00
51229;BME280;37304;52.216;6.874;2023-05-23T00:39:36;101331.38;;;14.42;100.00
51229;BME280;37304;52.216;6.874;2023-05-23T00:44:37;101329.72;;;14.40;100.00
51229;BME280;37304;52.216;6.874;2023-05-23T00:49:37;101341.91;;;14.39;100.00
51229;BME280;37304;52.216;6.874;2023-05-23T00:54:38;101345.34;;;14.41;100.00
51229;BME280;37304;52.216;6.874;2023-05-23T00:59:40;101349.59;;;14.47;100.00
51229;BME280;37304;52.216;6.874;2023-05-23T01:04:42;101351.38;;;14.45;100.00
51229;BME280;37304;52.216;6.874;2023-05-23T01:09:43;101348.19;;;14.34;100.00
51229;BME280;37304;52.216;6.874;2023-05-23T01:14:58;101363.31;;;14.19;100.00
51229;BME280;37304;52.216;6.874;2023-05-23T01:20:08;101352.78;;;14.22;100.00
51229;BME280;37304;52.216;6.874;2023-05-23T01:30:24;101371.97;;;14.21;100.00
51229;BME280;37304;52.216;6.874;2023-05-23T01:35:27;101370.34;;;14.17;100.00
51229;BME280;37304;52.216;6.874;2023-05-23T01:40:28;101382.94;;;14.00;100.00
51229;BME280;37304;52.216;6.874;2023-05-23T01:45:29;101390.81;;;13.98;100.00
51229;BME280;37304;52.216;6.874;2023-05-23T01:50:31;101398.88;;;13.87;100.00
51229;BME280;37304;52.216;6.874;2023-05-23T01:55:31;101396.28;;;13.87;100.00
51229;BME280;37304;52.216;6.874;2023-05-23T02:00:32;101403.22;;;13.88;100.00
51229;BME280;37304;52.216;6.874;2023-05-23T02:05:32;101415.72;;;13.74;100.00
51229;BME280;37304;52.216;6.874;2023-05-23T02:10:33;101433.94;;;13.77;100.00
51229;BME280;37304;52.216;6.874;2023-05-23T02:15:33;101444.63;;;13.64;100.00
51229;BME280;37304;52.216;6.874;2023-05-23T02:20:33;101436.91;;;13.58;100.00
51229;BME280;37304;52.216;6.874;2023-05-23T02:25:34;101437.97;;;13.49;100.00
51229;BME280;37304;52.216;6.874;2023-05-23T02:30:35;101446.56;;;13.53;100.00
51229;BME280;37304;52.216;6.874;2023-05-23T02:35:35;101438.06;;;13.43;100.00
51229;BME280;37304;52.216;6.874;2023-05-23T02:40:35;101446.69;;;13.48;100.00
51229;BME280;37304;52.216;6.874;2023-05-23T02:45:36;101439.06;;;13.34;100.00
51229;BME280;37304;52.216;6.874;2023-05-23T02:50:36;101446.91;;;13.34;100.00
51229;BME280;37304;52.216;6.874;2023-05-23T02:55:37;101448.72;;;13.31;100.00
51229;BME280;37304;52.216;6.874;2023-05-23T03:00:37;101452.31;;;13.23;100.00
51229;BME280;37304;52.216;6.874;2023-05-23T03:05:38;101458.69;;;13.08;100.00
51229;BME280;37304;52.216;6.874;2023-05-23T03:10:38;101449.97;;;13.09;100.00
51229;BME280;37304;52.216;6.874;2023-05-23T03:15:38;101447.34;;;13.09;100.00
51229;BME280;37304;52.216;6.874;2023-05-23T03:20:39;101459.47;;;13.12;100.00
51229;BME280;37304;52.216;6.874;2023-05-23T03:25:39;101458.78;;;13.02;100.00
51229;BME280;37304;52.216;6.874;2023-05-23T03:30:40;101457.91;;;13.02;100.00
51229;BME280;37304;52.216;6.874;2023-05-23T03:35:40;101469.22;;;13.01;100.00
51229;BME280;37304;52.216;6.874;2023-05-23T03:40:41;101469.31;;;12.96;100.00
51229;BME280;37304;52.216;6.874;2023-05-23T03:45:41;101460.63;;;12.97;100.00
51229;BME280;37304;52.216;6.874;2023-05-23T03:50:41;101464.97;;;12.96;100.00
51229;BME280;37304;52.216;6.874;2023-05-23T03:55:42;101470.22;;;12.93;100.00
51229;BME280;37304;52.216;6.874;2023-05-23T04:00:42;101477.28;;;12.87;100.00
51229;BME280;37304;52.216;6.874;2023-05-23T04:05:43;101480.88;;;12.79;100.00
51229;BME280;37304;52.216;6.874;2023-05-23T04:10:43;101491.34;;;12.78;100.00
51229;BME280;37304;52.216;6.874;2023-05-23T04:15:44;101501.00;;;12.73;100.00
51229;BME280;37304;52.216;6.874;2023-05-23T04:20:45;101503.41;;;12.84;100.00
51229;BME280;37304;52.216;6.874;2023-05-23T04:25:45;101516.59;;;12.74;100.00
51229;BME280;37304;52.216;6.874;2023-05-23T04:30:47;101510.44;;;12.80;100.00
51229;BME280;37304;52.216;6.874;2023-05-23T04:35:48;101532.44;;;12.62;100.00
51229;BME280;37304;52.216;6.874;2023-05-23T04:40:49;101533.34;;;12.58;100.00
51229;BME280;37304;52.216;6.874;2023-05-23T04:45:50;101554.22;;;12.58;100.00
51229;BME280;37304;52.216;6.874;2023-05-23T04:50:50;101552.50;;;12.57;100.00
51229;BME280;37304;52.216;6.874;2023-05-23T04:55:51;101542.03;;;12.58;100.00
51229;BME280;37304;52.216;6.874;2023-05-23T05:00:52;101558.63;;;12.52;100.00
51229;BME280;37304;52.216;6.874;2023-05-23T05:05:52;101562.16;;;12.48;100.00
51229;BME280;37304;52.216;6.874;2023-05-23T05:10:53;101567.47;;;12.42;100.00
51229;BME280;37304;52.216;6.874;2023-05-23T05:15:54;101581.25;;;12.49;100.00
51229;BME280;37304;52.216;6.874;2023-05-23T05:20:55;101592.56;;;12.48;100.00
51229;BME280;37304;52.216;6.874;2023-05-23T05:25:56;101591.59;;;12.55;100.00
51229;BME280;37304;52.216;6.874;2023-05-23T05:30:56;101589.13;;;12.46;100.00
51229;BME280;37304;52.216;6.874;2023-05-23T05:35:57;101596.78;;;12.60;100.00
51229;BME280;37304;52.216;6.874;2023-05-23T05:40:58;101595.00;;;12.62;100.00
51229;BME280;37304;52.216;6.874;2023-05-23T05:45:58;101601.16;;;12.59;100.00
51229;BME280;37304;52.216;6.874;2023-05-23T05:50:58;101607.31;;;12.50;100.00
51229;BME280;37304;52.216;6.874;2023-05-23T05:56:01;101620.59;;;12.30;100.00
51229;BME280;37304;52.216;6.874;2023-05-23T06:01:01;101623.13;;;12.36;100.00
51229;BME280;37304;52.216;6.874;2023-05-23T06:06:02;101638.00;;;12.30;100.00
51229;BME280;37304;52.216;6.874;2023-05-23T06:11:02;101637.19;;;12.21;100.00
51229;BME280;37304;52.216;6.874;2023-05-23T06:16:02;101641.50;;;12.22;100.00
51229;BME280;37304;52.216;6.874;2023-05-23T06:21:03;101657.34;;;12.04;100.00
51229;BME280;37304;52.216;6.874;2023-05-23T06:26:03;101644.22;;;12.13;100.00
51229;BME280;37304;52.216;6.874;2023-05-23T06:31:07;101650.31;;;12.14;100.00
51229;BME280;37304;52.216;6.874;2023-05-23T06:36:10;101659.00;;;12.11;100.00
51229;BME280;37304;52.216;6.874;2023-05-23T06:41:10;101679.09;;;11.98;100.00
51229;BME280;37304;52.216;6.874;2023-05-23T06:46:11;101682.59;;;11.91;100.00
51229;BME280;37304;52.216;6.874;2023-05-23T06:51:11;101681.81;;;11.83;100.00
51229;BME280;37304;52.216;6.874;2023-05-23T06:56:12;101693.09;;;11.83;100.00
51229;BME280;37304;52.216;6.874;2023-05-23T07:01:12;101697.50;;;11.73;100.00
51229;BME280;37304;52.216;6.874;2023-05-23T07:06:12;101701.84;;;11.74;100.00
51229;BME280;37304;52.216;6.874;2023-05-23T07:11:13;101705.28;;;11.76;100.00
51229;BME280;37304;52.216;6.874;2023-05-23T07:16:13;101719.22;;;11.74;100.00
51229;BME280;37304;52.216;6.874;2023-05-23T07:21:14;101714.09;;;11.58;100.00
51229;BME280;37304;52.216;6.874;2023-05-23T07:26:14;101712.53;;;11.34;100.00
51229;BME280;37304;52.216;6.874;2023-05-23T07:31:15;101720.28;;;11.43;100.00
51229;BME280;37304;52.216;6.874;2023-05-23T07:36:15;101729.00;;;11.36;100.00
51229;BME280;37304;52.216;6.874;2023-05-23T07:41:16;101737.59;;;11.49;100.00
51229;BME280;37304;52.216;6.874;2023-05-23T07:46:16;101737.56;;;11.52;100.00
51229;BME280;37304;52.216;6.874;2023-05-23T07:51:16;101741.09;;;11.46;100.00
51229;BME280;37304;52.216;6.874;2023-05-23T07:56:20;101741.09;;;11.42;100.00
51229;BME280;37304;52.216;6.874;2023-05-23T08:01:22;101751.59;;;11.34;100.00
51229;BME280;37304;52.216;6.874;2023-05-23T08:06:23;101756.72;;;11.46;100.00
51229;BME280;37304;52.216;6.874;2023-05-23T08:11:24;101763.72;;;11.33;100.00
51229;BME280;37304;52.216;6.874;2023-05-23T08:16:26;101764.31;;;11.79;100.00
51229;BME280;37304;52.216;6.874;2023-05-23T08:21:27;101757.78;;;12.39;100.00
51229;BME280;37304;52.216;6.874;2023-05-23T08:26:28;101756.69;;;12.63;100.00
51229;BME280;37304;52.216;6.874;2023-05-23T08:31:33;101763.00;;;12.39;100.00
51229;BME280;37304;52.216;6.874;2023-05-23T08:36:34;101770.19;;;13.01;100.00
51229;BME280;37304;52.216;6.874;2023-05-23T08:41:38;101762.53;;;12.84;100.00
51229;BME280;37304;52.216;6.874;2023-05-23T08:46:49;101764.66;;;12.46;100.00
51229;BME280;37304;52.216;6.874;2023-05-23T08:51:55;101773.78;;;12.88;100.00
51229;BME280;37304;52.216;6.874;2023-05-23T08:57:00;101780.88;;;12.76;100.00
51229;BME280;37304;52.216;6.874;2023-05-23T09:02:02;101794.63;;;12.94;100.00
51229;BME280;37304;52.216;6.874;2023-05-23T09:07:07;101799.81;;;12.97;100.00
51229;BME280;37304;52.216;6.874;2023-05-23T09:12:09;101806.41;;;13.26;100.00
51229;BME280;37304;52.216;6.874;2023-05-23T09:17:09;101808.69;;;12.79;100.00
51229;BME280;37304;52.216;6.874;2023-05-23T09:22:10;101815.78;;;12.63;100.00
51229;BME280;37304;52.216;6.874;2023-05-23T09:27:10;101822.56;;;12.79;100.00
51229;BME280;37304;52.216;6.874;2023-05-23T09:32:17;101811.13;;;12.94;100.00
51229;BME280;37304;52.216;6.874;2023-05-23T09:37:18;101822.34;;;13.73;100.00
51229;BME280;37304;52.216;6.874;2023-05-23T09:42:22;101828.06;;;13.34;100.00
51229;BME280;37304;52.216;6.874;2023-05-23T09:47:22;101825.59;;;13.20;100.00
51229;BME280;37304;52.216;6.874;2023-05-23T09:52:23;101842.28;;;13.08;100.00
51229;BME280;37304;52.216;6.874;2023-05-23T09:57:23;101844.22;;;12.88;100.00
51229;BME280;37304;52.216;6.874;2023-05-23T10:07:50;101842.44;;;13.69;100.00
51229;BME280;37304;52.216;6.874;2023-05-23T10:12:54;101845.09;;;14.27;100.00
51229;BME280;37304;52.216;6.874;2023-05-23T10:18:06;101835.53;;;16.06;100.00
51229;BME280;37304;52.216;6.874;2023-05-23T10:23:09;101824.22;;;16.73;100.00
51229;BME280;37304;52.216;6.874;2023-05-23T10:28:10;101828.28;;;15.78;100.00
51229;BME280;37304;52.216;6.874;2023-05-23T10:33:13;101829.25;;;17.14;100.00
51229;BME280;37304;52.216;6.874;2023-05-23T10:44:06;101822.16;;;17.76;100.00
51229;BME280;37304;52.216;6.874;2023-05-23T10:49:09;101811.06;;;18.74;100.00
51229;BME280;37304;52.216;6.874;2023-05-23T10:54:10;101824.47;;;18.68;100.00
51229;BME280;37304;52.216;6.874;2023-05-23T10:59:21;101819.22;;;17.58;100.00
51229;BME280;37304;52.216;6.874;2023-05-23T11:04:26;101826.31;;;17.25;100.00
51229;BME280;37304;52.216;6.874;2023-05-23T11:09:27;101832.47;;;17.84;100.00
51229;BME280;37304;52.216;6.874;2023-05-23T11:20:04;101836.13;;;17.78;100.00
51229;BME280;37304;52.216;6.874;2023-05-23T11:25:08;101831.38;;;17.32;100.00
51229;BME280;37304;52.216;6.874;2023-05-23T11:30:13;101832.13;;;17.36;100.00
51229;BME280;37304;52.216;6.874;2023-05-23T11:35:15;101844.38;;;17.96;100.00
51229;BME280;37304;52.216;6.874;2023-05-23T11:40:38;101838.09;;;18.28;95.02
51229;BME280;37304;52.216;6.874;2023-05-23T11:45:40;101844.16;;;18.81;93.16
51229;BME280;37304;52.216;6.874;2023-05-23T11:50:49;101843.78;;;18.68;95.93
51229;BME280;37304;52.216;6.874;2023-05-23T11:55:51;101850.09;;;18.62;96.58
51229;BME280;37304;52.216;6.874;2023-05-23T12:01:04;101851.19;;;18.30;96.46
51229;BME280;37304;52.216;6.874;2023-05-23T12:06:08;101845.47;;;18.44;93.10
51229;BME280;37304;52.216;6.874;2023-05-23T12:11:09;101843.03;;;19.61;86.02
51229;BME280;37304;52.216;6.874;2023-05-23T12:16:12;101838.72;;;18.62;83.62
51229;BME280;37304;52.216;6.874;2023-05-23T12:21:14;101839.94;;;18.25;90.24
51229;BME280;37304;52.216;6.874;2023-05-23T12:26:15;101839.44;;;18.66;90.08
51229;BME280;37304;52.216;6.874;2023-05-23T12:36:28;101839.53;;;18.37;87.96
51229;BME280;37304;52.216;6.874;2023-05-23T12:41:32;101830.97;;;18.57;87.49
51229;BME280;37304;52.216;6.874;2023-05-23T12:46:32;101837.66;;;18.14;85.46
51229;BME280;37304;52.216;6.874;2023-05-23T12:51:33;101841.19;;;17.56;87.57
51229;BME280;37304;52.216;6.874;2023-05-23T12:56:34;101855.69;;;17.69;88.98
51229;BME280;37304;52.216;6.874;2023-05-23T13:01:34;101855.69;;;17.69;91.38
51229;BME280;37304;52.216;6.874;2023-05-23T13:06:35;101862.72;;;17.97;91.53
51229;BME280;37304;52.216;6.874;2023-05-23T13:11:35;101859.78;;;17.18;92.97
51229;BME280;37304;52.216;6.874;2023-05-23T13:16:40;101863.19;;;16.88;90.02
51229;BME280;37304;52.216;6.874;2023-05-23T13:21:40;101852.97;;;17.42;90.49
51229;BME280;37304;52.216;6.874;2023-05-23T13:26:43;101860.03;;;17.40;92.63
51229;BME280;37304;52.216;6.874;2023-05-23T13:31:43;101857.72;;;18.45;85.68
51229;BME280;37304;52.216;6.874;2023-05-23T13:36:44;101858.84;;;17.51;89.81
51229;BME280;37304;52.216;6.874;2023-05-23T13:41:44;101867.84;;;17.12;94.03
51229;BME280;37304;52.216;6.874;2023-05-23T13:46:45;101871.00;;;17.85;84.40
51229;BME280;37304;52.216;6.874;2023-05-23T13:51:45;101863.00;;;18.43;81.11
51229;BME280;37304;52.216;6.874;2023-05-23T13:56:46;101863.41;;;17.74;85.01
51229;BME280;37304;52.216;6.874;2023-05-23T14:01:47;101872.66;;;18.16;82.63
51229;BME280;37304;52.216;6.874;2023-05-23T14:06:48;101869.69;;;17.40;84.39
51229;BME280;37304;52.216;6.874;2023-05-23T14:11:48;101878.03;;;17.24;89.27
51229;BME280;37304;52.216;6.874;2023-05-23T14:16:51;101884.31;;;17.49;91.28
51229;BME280;37304;52.216;6.874;2023-05-23T14:21:52;101879.03;;;18.09;85.80
51229;BME280;37304;52.216;6.874;2023-05-23T14:26:52;101880.63;;;18.14;82.66
51229;BME280;37304;52.216;6.874;2023-05-23T14:31:53;101884.63;;;17.98;83.05
51229;BME280;37304;52.216;6.874;2023-05-23T14:36:54;101876.69;;;17.09;83.87
51229;BME280;37304;52.216;6.874;2023-05-23T14:41:54;101881.38;;;16.96;85.28
51229;BME280;37304;52.216;6.874;2023-05-23T14:46:55;101887.94;;;16.80;86.44
51229;BME280;37304;52.216;6.874;2023-05-23T14:51:55;101872.41;;;17.37;82.58
51229;BME280;37304;52.216;6.874;2023-05-23T14:56:56;101872.75;;;17.84;80.10
51229;BME280;37304;52.216;6.874;2023-05-23T15:01:57;101881.22;;;17.94;76.06
51229;BME280;37304;52.216;6.874;2023-05-23T15:06:58;101884.81;;;17.31;81.52
51229;BME280;37304;52.216;6.874;2023-05-23T15:11:59;101868.84;;;17.69;80.78
51229;BME280;37304;52.216;6.874;2023-05-23T15:17:00;101872.41;;;17.95;76.28
51229;BME280;37304;52.216;6.874;2023-05-23T15:22:07;101885.06;;;17.82;77.92
51229;BME280;37304;52.216;6.874;2023-05-23T15:27:07;101875.38;;;18.14;73.45
51229;BME280;37304;52.216;6.874;2023-05-23T15:32:08;101876.66;;;17.99;70.79
51229;BME280;37304;52.216;6.874;2023-05-23T15:37:08;101878.19;;;17.78;73.23
51229;BME280;37304;52.216;6.874;2023-05-23T15:42:08;101894.59;;;17.26;80.17
51229;BME280;37304;52.216;6.874;2023-05-23T15:47:09;101889.41;;;16.55;81.50
51229;BME280;37304;52.216;6.874;2023-05-23T15:52:10;101893.66;;;16.23;86.92
51229;BME280;37304;52.216;6.874;2023-05-23T15:57:10;101899.19;;;15.71;87.82
51229;BME280;37304;52.216;6.874;2023-05-23T16:02:10;101906.84;;;15.81;84.76
51229;BME280;37304;52.216;6.874;2023-05-23T16:07:11;101899.19;;;16.11;83.96
51229;BME280;37304;52.216;6.874;2023-05-23T16:12:11;101888.84;;;15.64;81.28
51229;BME280;37304;52.216;6.874;2023-05-23T16:17:12;101888.09;;;16.01;81.66
51229;BME280;37304;52.216;6.874;2023-05-23T16:22:12;101896.66;;;16.08;81.44
51229;BME280;37304;52.216;6.874;2023-05-23T16:27:13;101901.25;;;15.54;85.38
51229;BME280;37304;52.216;6.874;2023-05-23T16:32:13;101904.88;;;15.03;88.18
51229;BME280;37304;52.216;6.874;2023-05-23T16:37:17;101904.53;;;14.73;87.15
51229;BME280;37304;52.216;6.874;2023-05-23T16:42:18;101905.69;;;14.53;88.75
51229;BME280;37304;52.216;6.874;2023-05-23T16:47:18;101893.47;;;14.52;88.06
51229;BME280;37304;52.216;6.874;2023-05-23T16:52:18;101897.41;;;14.24;90.32
51229;BME280;37304;52.216;6.874;2023-05-23T16:57:20;101896.78;;;14.07;91.24
51229;BME280;37304;52.216;6.874;2023-05-23T17:02:20;101899.34;;;14.10;90.79
51229;BME280;37304;52.216;6.874;2023-05-23T17:07:20;101903.22;;;13.84;89.05
51229;BME280;37304;52.216;6.874;2023-05-23T17:12:21;101905.31;;;13.56;89.68
51229;BME280;37304;52.216;6.874;2023-05-23T17:17:21;101901.97;;;13.43;91.63
51229;BME280;37304;52.216;6.874;2023-05-23T17:22:22;101898.41;;;13.50;94.37
51229;BME280;37304;52.216;6.874;2023-05-23T17:27:23;101907.22;;;13.38;95.97
51229;BME280;37304;52.216;6.874;2023-05-23T17:32:25;101921.28;;;13.21;98.06
51229;BME280;37304;52.216;6.874;2023-05-23T17:37:25;101918.97;;;12.92;97.22
51229;BME280;37304;52.216;6.874;2023-05-23T17:42:25;101907.63;;;12.98;99.39
51229;BME280;37304;52.216;6.874;2023-05-23T17:47:26;101921.59;;;12.92;99.69
51229;BME280;37304;52.216;6.874;2023-05-23T17:52:26;101925.13;;;12.86;97.08
51229;BME280;37304;52.216;6.874;2023-05-23T17:57:27;101926.84;;;12.87;98.76
51229;BME280;37304;52.216;6.874;2023-05-23T18:02:30;101938.34;;;12.66;99.31
51229;BME280;37304;52.216;6.874;2023-05-23T18:07:30;101936.69;;;12.52;99.59
51229;BME280;37304;52.216;6.874;2023-05-23T18:12:31;101952.41;;;12.42;100.00
51229;BME280;37304;52.216;6.874;2023-05-23T18:17:31;101953.31;;;12.36;100.00
51229;BME280;37304;52.216;6.874;2023-05-23T18:22:32;101960.38;;;12.15;100.00
51229;BME280;37304;52.216;6.874;2023-05-23T18:27:33;101962.16;;;12.12;100.00
51229;BME280;37304;52.216;6.874;2023-05-23T18:32:34;101959.59;;;11.91;100.00
51229;BME280;37304;52.216;6.874;2023-05-23T18:37:34;101965.69;;;11.83;100.00
51229;BME280;37304;52.216;6.874;2023-05-23T18:42:35;101972.69;;;11.73;100.00
51229;BME280;37304;52.216;6.874;2023-05-23T18:47:35;101972.72;;;11.56;100.00
51229;BME280;37304;52.216;6.874;2023-05-23T18:52:36;101966.66;;;11.52;100.00
51229;BME280;37304;52.216;6.874;2023-05-23T18:57:41;101971.91;;;11.33;100.00
51229;BME280;37304;52.216;6.874;2023-05-23T19:02:41;101979.75;;;11.21;100.00
51229;BME280;37304;52.216;6.874;2023-05-23T19:07:44;101986.66;;;11.14;100.00
51229;BME280;37304;52.216;6.874;2023-05-23T19:12:45;101997.09;;;11.05;100.00
51229;BME280;37304;52.216;6.874;2023-05-23T19:17:46;102005.75;;;10.95;100.00
51229;BME280;37304;52.216;6.874;2023-05-23T19:22:48;102014.41;;;10.80;100.00
51229;BME280;37304;52.216;6.874;2023-05-23T19:27:49;102027.41;;;10.78;100.00
51229;BME280;37304;52.216;6.874;2023-05-23T19:32:50;102036.91;;;10.62;100.00
51229;BME280;37304;52.216;6.874;2023-05-23T19:37:51;102034.28;;;10.46;100.00
51229;BME280;37304;52.216;6.874;2023-05-23T19:42:54;102036.00;;;10.41;100.00
51229;BME280;37304;52.216;6.874;2023-05-23T19:47:56;102046.34;;;10.38;100.00
51229;BME280;37304;52.216;6.874;2023-05-23T19:52:57;102043.69;;;10.21;100.00
51229;BME280;37304;52.216;6.874;2023-05-23T19:57:58;102060.97;;;10.16;100.00
51229;BME280;37304;52.216;6.874;2023-05-23T20:02:58;102052.25;;;10.06;100.00
51229;BME280;37304;52.216;6.874;2023-05-23T20:07:58;102054.78;;;9.92;100.00
51229;BME280;37304;52.216;6.874;2023-05-23T20:13:00;102074.69;;;9.88;100.00
51229;BME280;37304;52.216;6.874;2023-05-23T20:18:01;102085.03;;;9.82;100.00
51229;BME280;37304;52.216;6.874;2023-05-23T20:23:02;102091.03;;;9.75;100.00
51229;BME280;37304;52.216;6.874;2023-05-23T20:28:02;102094.41;;;9.63;100.00
51229;BME280;37304;52.216;6.874;2023-05-23T20:33:03;102080.53;;;9.58;100.00
51229;BME280;37304;52.216;6.874;2023-05-23T20:38:03;102085.66;;;9.49;100.00
51229;BME280;37304;52.216;6.874;2023-05-23T20:43:03;102083.91;;;9.47;100.00
51229;BME280;37304;52.216;6.874;2023-05-23T20:48:04;102078.63;;;9.35;100.00
51229;BME280;37304;52.216;6.874;2023-05-23T20:53:05;102086.31;;;9.24;100.00
51229;BME280;37304;52.216;6.874;2023-05-23T20:58:05;102092.34;;;9.25;100.00
51229;BME280;37304;52.216;6.874;2023-05-23T21:03:06;102083.66;;;9.20;100.00
51229;BME280;37304;52.216;6.874;2023-05-23T21:08:06;102088.75;;;9.10;100.00
51229;BME280;37304;52.216;6.874;2023-05-23T21:13:06;102077.50;;;9.08;100.00
51229;BME280;37304;52.216;6.874;2023-05-23T21:18:07;102088.66;;;8.96;100.00
51229;BME280;37304;52.216;6.874;2023-05-23T21:23:07;102086.91;;;8.97;100.00
51229;BME280;37304;52.216;6.874;2023-05-23T21:28:07;102086.81;;;8.87;100.00
51229;BME280;37304;52.216;6.874;2023-05-23T21:33:08;102091.13;;;8.87;100.00
51229;BME280;37304;52.216;6.874;2023-05-23T21:38:14;102085.88;;;8.81;100.00
51229;BME280;37304;52.216;6.874;2023-05-23T21:43:15;102086.69;;;8.75;100.00
51229;BME280;37304;52.216;6.874;2023-05-23T21:48:15;102084.09;;;8.75;100.00
51229;BME280;37304;52.216;6.874;2023-05-23T21:53:15;102079.69;;;8.66;100.00
51229;BME280;37304;52.216;6.874;2023-05-23T21:58:16;102079.72;;;8.69;100.00
51229;BME280;37304;52.216;6.874;2023-05-23T22:03:16;102081.44;;;8.70;100.00
51229;BME280;37304;52.216;6.874;2023-05-23T22:08:16;102079.69;;;8.65;100.00
51229;BME280;37304;52.216;6.874;2023-05-23T22:13:17;102077.97;;;8.68;100.00
51229;BME280;37304;52.216;6.874;2023-05-23T22:18:17;102076.91;;;8.52;100.00
51229;BME280;37304;52.216;6.874;2023-05-23T22:23:18;102094.28;;;8.58;100.00
51229;BME280;37304;52.216;6.874;2023-05-23T22:28:19;102095.00;;;8.49;100.00
51229;BME280;37304;52.216;6.874;2023-05-23T22:33:22;102092.28;;;8.38;100.00
51229;BME280;37304;52.216;6.874;2023-05-23T22:38:22;102094.84;;;8.37;100.00
51229;BME280;37304;52.216;6.874;2023-05-23T22:43:22;102085.41;;;8.42;100.00
51229;BME280;37304;52.216;6.874;2023-05-23T22:48:23;102092.19;;;8.32;100.00
51229;BME280;37304;52.216;6.874;2023-05-23T22:53:27;102087.81;;;8.26;100.00
51229;BME280;37304;52.216;6.874;2023-05-23T22:58:28;102088.63;;;8.24;100.00
51229;BME280;37304;52.216;6.874;2023-05-23T23:03:28;102084.31;;;8.26;100.00
51229;BME280;37304;52.216;6.874;2023-05-23T23:08:28;102090.31;;;8.20;100.00
51229;BME280;37304;52.216;6.874;2023-05-23T23:13:29;102093.69;;;8.14;100.00
51229;BME280;37304;52.216;6.874;2023-05-23T23:18:29;102094.53;;;8.12;100.00
51229;BME280;37304;52.216;6.874;2023-05-23T23:23:30;102082.47;;;8.14;100.00
51229;BME280;37304;52.216;6.874;2023-05-23T23:28:30;102093.56;;;8.05;100.00
51229;BME280;37304;52.216;6.874;2023-05-23T23:33:30;102091.81;;;8.04;100.00
51229;BME280;37304;52.216;6.874;2023-05-23T23:38:31;102095.28;;;8.06;100.00
51229;BME280;37304;52.216;6.874;2023-05-23T23:43:31;102101.19;;;7.96;100.00
51229;BME280;37304;52.216;6.874;2023-05-23T23:48:33;102089.97;;;7.95;100.00
51229;BME280;37304;52.216;6.874;2023-05-23T23:53:33;102089.09;;;7.95;100.00
51229;BME280;37304;52.216;6.874;2023-05-23T23:58:34;102089.91;;;7.91;100.00
